Ladd AAF Airfield
PAFB : now visible

Airfield :











YOU CAN JOIN US ON...

 
LOGIN :

Register | Disclaimer

   EN    FR    IT 

 









Legend :    VFR   Marginal VFR   IFR   Intensive IFR   Very Intensive IFR
Visi :
Ceiling :
>= 8 km
>= 3000ft
5 to 8 km
1000 to 3000 ft
1500m to 5 km
500 to 1000 ft
800 to 1500m
200 to 500 ft
< 800m
< 200 ft
Symbols :   Thunderstorms  Fog  Heavy snow  Heavy precipitations  Wind > 20 kt






- Airport Elevation : 454 ft
- IATA code : FBK


PAFB - Ladd AAF

CURRENT METAR :
  • 070103Z 25016KT 10SM BKN023 OVC031 M10/M13 A2987 RMK AO2A SLP126

EXPIRED METARs :
  • 070058Z 24013KT 4SM BR BKN019 BKN029 M09/M13 A2987 RMK AO2A SLP125 P0000 T10941131
  • 070039Z 26011KT 2SM -SN BR OVC016 M10/M12 A2986 RMK AO2A VIS 1V3 CIG 016V023 SLP122
  • 070029Z 25012T 1/2SM -SN BLSN BKN023 OVC033 M10/M12 A2986
  • 070019Z 26012KT 1SM -SN BR FEW018 BKN025 OVC035 M09/M13 A2986 RMK AO2A TWR VIS 1/2 VIS 1/2V1 5/8 SLP122
  • 062358Z 28008G16KT 8SM -SN FEW019 BKN028 OVC036 M09/M13 A2986 RMK AO2A SLP122 P0000 60000 4/021 T10941129 11089 21102 52015
  • 062337Z AUTO 28011KT 9SM -SN FEW020 SCT027 OVC032 M10/M13 A2985 RMK AO2 SNE14SNB23E33SNB37 SLP119
  • 062323Z AUTO 28013KT 8SM -SN BKN021 BKN027 OVC034 M10/M13 A2985 RMK AO2 SNE14SNB23 SLP119
  • 062321Z 27013KT 3SM -SN BR BKN019 BKN028 OVC035 M10/M13 A2985 RMK AO2A WSHFT 10 SLP119
  • 062258Z 25012KT 5/8SM -SN BR OVC018 M10/M12 A2984 RMK AO2A VIS 1/2V1 3/4 CIG 018V023 SLP115 P0000
  • 062236Z 26012KT 1 1/2SM -SN FEW014 OVC026 M10/M13 A2984 RMK AO2A SLP115
  • 062219Z 25014KT 6SM -SN BLSN SCT024 BKN031 M09/M13 A2983 RMK AO2A SLP112
  • 062158Z AUTO 24016G26KT 8SM -SN BKN029 BKN050 M09/M12 A2982 RMK AO2 PK WND 21026/47 SNE2058SNB50 CIG 029V034 SLP108 P0000 T10901117

TAF AMD TAF PAFB
Valid from the 07 at 00:00 until the 08 at 05:00 UTC


070050Z 0700/0805 25015G20KT 4400 BLSN BKN019 620229 510043 QNH2981INS
TEMPO 0700/0703 25015G25KT 4800 BLSN
BECMG 0703/0704 24009KT 9000 -SN BKN018 620189 510053 QNH2987INS
BECMG 0723/0724 VRB06KT 9999 NSW FEW027 QNH3001INS TXM04/0702Z TNM11/0715Z



MET'MAP, your aeronautical weather chart ! - Copyright ORBIFLY December 2007 - Disclaimer

ORBIFLY MET'MAP TEAM :

Programming & Development : Alexandra Zaïnal
Concept & original design : Baudouin d'Aumeries
Assistance for programming : Marc-Olivier Méhu
Technical & hardware support : Manuel Goepfert

Contact : metmap@orbifly.com




SOURCES & CREDITS :

   NOAA       Earth
Advisory